Time;durP1;ratioP1;P1;durP2;ratioP2;P2;SDS_P1;SDS_P2;PMS_P1;PMS_P2;Temp;Humidity;BMP_temperature;BMP_pressure;BME280_temperature;BME280_humidity;BME280_pressure;Samples;Min_cycle;Max_cycle;Signal;HPM_P1;HPM_P2
2022/01/30 00:00:07;;;;;;;3.03;0.85;;;8.30;99.90;;;;;;4940725;29;20024;-88
2022/01/30 00:02:36;;;;;;;1.05;0.65;;;8.30;99.90;;;;;;4939492;29;20024;-88
2022/01/30 00:05:02;;;;;;;0.82;0.70;;;8.40;99.90;;;;;;4943561;29;20024;-88
2022/01/30 00:07:28;;;;;;;2.28;0.95;;;8.40;99.90;;;;;;4939696;29;20029;-89
2022/01/30 00:09:55;;;;;;;2.15;0.85;;;8.40;99.90;;;;;;4935687;29;20099;-90
2022/01/30 00:12:28;;;;;;;1.00;0.80;;;8.30;99.90;;;;;;4934723;29;20053;-89
2022/01/30 00:14:56;;;;;;;1.95;0.80;;;8.30;99.90;;;;;;4949239;29;20087;-88
2022/01/30 00:17:28;;;;;;;3.58;1.00;;;8.40;99.90;;;;;;4939927;29;20024;-87
2022/01/30 00:19:59;;;;;;;0.63;0.60;;;8.30;99.90;;;;;;4941938;29;20031;-87
2022/01/30 00:25:03;;;;;;;1.27;0.90;;;8.30;99.90;;;;;;4942187;29;20024;-88
2022/01/30 00:27:32;;;;;;;1.58;0.90;;;8.30;99.90;;;;;;4942506;29;20050;-88
2022/01/30 00:29:58;;;;;;;2.10;0.90;;;8.30;99.90;;;;;;4926197;29;20036;-85
2022/01/30 00:32:25;;;;;;;4.55;0.80;;;8.30;99.90;;;;;;4941856;29;20087;-87
2022/01/30 00:34:51;;;;;;;1.75;1.00;;;8.30;99.90;;;;;;4941292;29;20024;-88
2022/01/30 00:37:18;;;;;;;1.25;0.85;;;8.30;99.90;;;;;;4938895;29;20090;-87
2022/01/30 00:39:43;;;;;;;1.38;1.00;;;8.20;99.90;;;;;;4938836;29;20052;-91
2022/01/30 00:42:09;;;;;;;2.15;1.15;;;8.30;99.90;;;;;;4922076;29;20032;-86
2022/01/30 00:44:36;;;;;;;1.77;1.23;;;8.30;99.90;;;;;;4940049;29;20064;-89
2022/01/30 00:47:03;;;;;;;1.48;1.20;;;8.30;99.90;;;;;;4935923;29;20039;-88
2022/01/30 00:49:30;;;;;;;2.78;1.27;;;8.30;99.90;;;;;;4935143;29;20036;-88
2022/01/30 00:51:56;;;;;;;1.98;1.08;;;8.40;99.90;;;;;;4950614;29;20040;-89
2022/01/30 00:54:21;;;;;;;2.55;1.05;;;8.30;99.90;;;;;;4931232;29;20085;-88
2022/01/30 00:56:47;;;;;;;1.23;0.93;;;8.40;99.90;;;;;;4929013;29;20039;-88
2022/01/30 00:59:13;;;;;;;1.33;1.00;;;8.30;99.90;;;;;;4924484;29;20043;-89
2022/01/30 01:01:39;;;;;;;1.48;1.10;;;8.30;99.90;;;;;;4921526;29;20055;-88
2022/01/30 01:04:05;;;;;;;1.40;0.95;;;8.40;99.90;;;;;;4929542;29;20039;-89
2022/01/30 01:06:31;;;;;;;4.25;0.90;;;8.40;99.90;;;;;;4931942;29;20024;-88
2022/01/30 01:08:59;;;;;;;2.92;0.90;;;8.40;99.90;;;;;;4963590;23;20637;-88
2022/01/30 01:25:38;;;;;;;1.65;0.90;;;8.60;99.90;;;;;;4886825;29;20052;-87
2022/01/30 01:28:04;;;;;;;0.82;0.80;;;8.60;99.90;;;;;;4900725;29;20041;-87
2022/01/30 01:30:30;;;;;;;1.60;0.98;;;8.60;99.90;;;;;;4901995;29;20064;-86
2022/01/30 01:33:00;;;;;;;2.28;1.00;;;8.70;99.90;;;;;;4903808;29;20025;-88
2022/01/30 01:35:26;;;;;;;2.78;1.13;;;8.70;99.90;;;;;;4903211;29;20044;-87
2022/01/30 01:37:54;;;;;;;2.03;1.00;;;8.70;99.90;;;;;;4918458;29;20025;-86
2022/01/30 01:40:21;;;;;;;1.27;1.05;;;8.70;99.90;;;;;;4918353;29;20025;-87
2022/01/30 01:42:46;;;;;;;2.05;1.10;;;8.70;99.90;;;;;;4902330;29;20029;-87
2022/01/30 01:45:19;;;;;;;2.45;1.10;;;8.80;99.90;;;;;;4903229;29;20029;-88
2022/01/30 01:47:45;;;;;;;2.17;1.05;;;8.70;99.90;;;;;;4918704;29;20041;-88
2022/01/30 01:50:17;;;;;;;2.13;1.15;;;8.70;99.90;;;;;;4902232;29;20021;-87
2022/01/30 01:52:45;;;;;;;1.08;0.98;;;8.70;99.90;;;;;;4902918;29;20050;-87
2022/01/30 01:55:11;;;;;;;1.38;1.20;;;8.70;99.90;;;;;;4902819;29;20013;-86
2022/01/30 01:57:37;;;;;;;3.67;0.88;;;8.70;99.90;;;;;;4917415;29;20025;-86
2022/01/30 02:00:22;;;;;;;4.13;1.23;;;8.70;99.90;;;;;;4917624;29;20029;-87
2022/01/30 02:02:48;;;;;;;3.20;1.10;;;8.70;99.90;;;;;;4917309;29;20035;-85
2022/01/30 02:05:14;;;;;;;3.35;1.20;;;8.80;99.90;;;;;;4915913;29;20076;-87
2022/01/30 02:10:29;;;;;;;1.38;1.15;;;8.80;99.90;;;;;;4915216;29;20013;-86
2022/01/30 02:13:12;;;;;;;3.05;1.10;;;8.80;99.90;;;;;;4915966;29;20082;-86
2022/01/30 02:24:06;;;;;;;1.98;1.20;;;8.90;99.90;;;;;;4917952;29;20052;-84
2022/01/30 02:26:42;;;;;;;2.58;1.38;;;8.90;99.90;;;;;;4915090;29;20044;-85
2022/01/30 02:29:08;;;;;;;3.08;1.10;;;8.90;99.90;;;;;;4915009;29;20044;-87
2022/01/30 02:31:39;;;;;;;1.83;1.30;;;8.90;99.90;;;;;;4904197;29;20024;-87
2022/01/30 02:34:05;;;;;;;3.70;1.50;;;8.90;99.90;;;;;;4919111;29;20025;-87
2022/01/30 02:36:32;;;;;;;1.48;1.20;;;8.80;99.90;;;;;;4918956;29;20016;-87
2022/01/30 02:39:00;;;;;;;2.88;1.40;;;8.80;99.90;;;;;;4916075;29;20029;-86
2022/01/30 02:41:26;;;;;;;1.23;1.10;;;8.80;99.90;;;;;;4903864;29;20036;-85
2022/01/30 02:44:10;;;;;;;3.50;1.15;;;8.80;99.90;;;;;;4919148;29;20017;-88
2022/01/30 02:46:41;;;;;;;2.15;1.10;;;8.80;99.90;;;;;;4918742;29;20041;-88
2022/01/30 02:51:54;;;;;;;0.80;0.73;;;8.80;99.90;;;;;;4916926;29;20048;-85
2022/01/30 02:54:20;;;;;;;;;;;8.80;99.90;;;;;;4915974;29;20037;-86
2022/01/30 02:56:47;;;;;;;1.58;1.00;;;8.80;99.90;;;;;;4896128;29;19966;-86
2022/01/30 02:59:14;;;;;;;4.13;2.20;;;8.80;99.90;;;;;;4914333;29;20033;-86
2022/01/30 03:01:40;;;;;;;7.55;4.03;;;8.80;99.90;;;;;;4901858;29;20032;-86
2022/01/30 03:04:07;;;;;;;6.80;3.92;;;8.90;99.90;;;;;;4905580;29;20068;-87
2022/01/30 03:06:33;;;;;;;7.00;3.35;;;8.90;99.90;;;;;;4921560;29;20014;-85
2022/01/30 03:08:59;;;;;;;5.68;3.05;;;8.80;99.90;;;;;;4921314;29;20073;-88
2022/01/30 03:11:25;;;;;;;4.05;2.00;;;8.70;99.90;;;;;;4906432;29;20093;-87
2022/01/30 03:13:50;;;;;;;2.55;1.30;;;8.70;99.90;;;;;;4920303;29;20025;-87
2022/01/30 03:16:16;;;;;;;2.92;1.20;;;8.80;99.90;;;;;;4905793;29;20033;-88
2022/01/30 03:18:43;;;;;;;1.10;0.77;;;8.80;99.90;;;;;;4921681;29;20045;-86
2022/01/30 03:21:09;;;;;;;1.90;0.80;;;8.80;99.90;;;;;;4905760;29;20045;-86
2022/01/30 03:23:37;;;;;;;0.95;0.80;;;8.80;99.90;;;;;;4921422;29;20032;-86
2022/01/30 03:26:04;;;;;;;3.08;0.80;;;8.80;99.90;;;;;;4905103;29;20013;-86
2022/01/30 03:28:52;;;;;;;1.35;0.85;;;8.80;99.90;;;;;;4904450;29;20052;-85
2022/01/30 03:31:22;;;;;;;1.38;1.00;;;8.90;99.90;;;;;;4919929;29;20037;-84
2022/01/30 03:33:49;;;;;;;1.13;0.77;;;8.90;99.90;;;;;;4919138;29;20062;-85
2022/01/30 03:36:21;;;;;;;0.63;0.60;;;8.80;99.90;;;;;;4920544;29;20017;-87
2022/01/30 03:38:48;;;;;;;0.85;0.70;;;8.80;99.90;;;;;;4905984;29;20032;-88
2022/01/30 03:41:15;;;;;;;1.88;1.00;;;8.80;99.90;;;;;;4920195;29;20029;-88
2022/01/30 03:43:42;;;;;;;1.80;0.90;;;8.90;99.90;;;;;;4919310;29;20035;-87
2022/01/30 03:46:08;;;;;;;0.98;0.70;;;8.90;99.90;;;;;;4903772;29;20014;-87
2022/01/30 03:48:35;;;;;;;1.42;0.98;;;8.90;99.90;;;;;;4918729;29;20057;-85
2022/01/30 03:51:06;;;;;;;0.95;0.70;;;8.90;99.90;;;;;;4903253;29;20032;-86
2022/01/30 03:53:32;;;;;;;1.27;0.70;;;8.90;99.90;;;;;;4918606;29;20041;-87
2022/01/30 03:55:58;;;;;;;3.38;0.80;;;9.00;99.90;;;;;;4901103;29;20032;-86
2022/01/30 03:58:28;;;;;;;1.65;0.70;;;8.90;99.90;;;;;;4913007;29;20041;-85
2022/01/30 04:00:54;;;;;;;0.50;0.50;;;8.90;99.90;;;;;;4911442;29;20062;-84
2022/01/30 04:03:22;;;;;;;1.20;0.70;;;8.90;99.90;;;;;;4896735;29;20021;-87
2022/01/30 04:05:48;;;;;;;1.15;0.63;;;8.90;99.90;;;;;;4908818;29;20060;-86
2022/01/30 04:08:14;;;;;;;1.08;0.63;;;8.90;99.90;;;;;;4906847;29;20029;-85
2022/01/30 04:10:58;;;;;;;0.50;0.50;;;8.90;99.90;;;;;;4906875;29;20036;-86
2022/01/30 04:13:35;;;;;;;2.15;1.15;;;8.90;99.90;;;;;;4890239;29;20466;-87
2022/01/30 04:16:23;;;;;;;0.80;0.70;;;8.90;99.90;;;;;;4905044;29;20040;-86
2022/01/30 04:19:25;;;;;;;1.10;0.85;;;8.80;99.90;;;;;;4907669;29;20040;-86
2022/01/30 04:21:51;;;;;;;3.75;0.70;;;8.80;99.90;;;;;;4894278;29;20105;-86
2022/01/30 04:24:35;;;;;;;2.23;0.57;;;8.80;99.90;;;;;;4897344;29;20066;-86
2022/01/30 04:27:20;;;;;;;0.60;0.60;;;8.70;99.90;;;;;;4891463;29;20052;-86
2022/01/30 04:30:25;;;;;;;0.77;0.50;;;8.70;99.90;;;;;;4890334;29;20091;-86
2022/01/30 04:33:29;;;;;;;0.73;0.50;;;8.60;99.90;;;;;;4892468;29;20069;-86
2022/01/30 04:36:20;;;;;;;0.50;0.50;;;8.60;99.90;;;;;;4905254;29;20127;-84
2022/01/30 04:58:27;;;;;;;0.85;0.52;;;8.80;99.90;;;;;;4854247;29;20045;-85
2022/01/30 05:01:14;;;;;;;0.38;0.32;;;8.80;99.90;;;;;;4897678;29;20045;-86
2022/01/30 05:04:28;;;;;;;1.23;0.25;;;8.80;99.90;;;;;;4911592;29;20029;-86
2022/01/30 05:10:07;;;;;;;3.10;0.40;;;8.80;99.90;;;;;;4900031;29;20064;-85
2022/01/30 05:12:55;;;;;;;0.30;0.30;;;8.80;99.90;;;;;;4898535;29;20051;-84
2022/01/30 05:15:43;;;;;;;0.52;0.40;;;8.90;99.90;;;;;;4899469;29;20072;-85
2022/01/30 05:18:24;;;;;;;0.50;0.30;;;8.90;99.90;;;;;;4900664;29;20048;-84
2022/01/30 05:21:09;;;;;;;2.50;0.40;;;8.90;99.90;;;;;;4915861;29;20029;-86
2022/01/30 05:23:43;;;;;;;;;;;8.90;99.90;;;;;;4918229;29;20017;-86
2022/01/30 05:26:16;;;;;;;0.00;0.00;;;8.90;99.90;;;;;;4903190;29;19922;-88
2022/01/30 05:29:02;;;;;;;1.75;0.30;;;8.90;99.90;;;;;;4913137;29;20062;-87
2022/01/30 05:31:42;;;;;;;0.32;0.30;;;8.90;99.90;;;;;;4919412;29;20131;-88
2022/01/30 05:34:32;;;;;;;0.35;0.28;;;8.80;99.90;;;;;;4904324;29;20025;-85
2022/01/30 05:37:17;;;;;;;1.00;0.32;;;8.80;99.90;;;;;;4913589;29;20128;-86
2022/01/30 05:40:02;;;;;;;0.30;0.30;;;8.80;99.90;;;;;;4899832;29;20063;-87
2022/01/30 05:42:51;;;;;;;1.15;0.47;;;8.70;99.90;;;;;;4903036;29;20049;-87
2022/01/30 05:45:45;;;;;;;2.35;0.40;;;8.70;99.90;;;;;;4905683;29;20106;-87
2022/01/30 05:48:15;;;;;;;1.77;0.40;;;8.60;99.90;;;;;;4918325;29;20061;-87
2022/01/30 05:51:20;;;;;;;1.42;0.52;;;8.50;99.90;;;;;;4920854;29;20025;-85
2022/01/30 05:53:50;;;;;;;1.60;0.88;;;8.50;99.90;;;;;;4886846;29;20096;-87
2022/01/30 05:56:18;;;;;;;2.90;0.60;;;8.50;99.90;;;;;;4902111;29;20029;-86
2022/01/30 05:58:44;;;;;;;1.58;0.50;;;8.40;99.90;;;;;;4892533;29;20109;-87
2022/01/30 06:01:28;;;;;;;2.70;0.73;;;8.30;99.90;;;;;;4892981;29;20037;-85
2022/01/30 06:04:00;;;;;;;3.83;0.98;;;8.30;99.90;;;;;;4902168;29;20044;-86
2022/01/30 06:06:26;;;;;;;2.22;0.70;;;8.20;99.90;;;;;;4901973;29;20033;-85
2022/01/30 06:09:19;;;;;;;5.65;0.65;;;8.20;99.90;;;;;;4907353;29;20093;-85
2022/01/30 06:11:52;;;;;;;3.30;0.98;;;8.20;99.90;;;;;;4912485;29;20037;-86
2022/01/30 06:14:22;;;;;;;3.92;0.95;;;8.10;99.90;;;;;;4911659;29;20037;-85
2022/01/30 06:16:53;;;;;;;5.75;1.20;;;8.10;99.90;;;;;;4912139;29;20025;-87
2022/01/30 06:19:37;;;;;;;2.10;1.08;;;8.10;99.90;;;;;;4896673;29;20109;-86
2022/01/30 06:22:21;;;;;;;2.97;1.08;;;8.10;99.90;;;;;;4886791;29;20093;-86
2022/01/30 06:25:08;;;;;;;6.65;1.30;;;8.10;99.90;;;;;;4885875;29;20053;-86
2022/01/30 06:27:52;;;;;;;4.65;1.73;;;8.10;99.90;;;;;;4890646;29;20066;-86
2022/01/30 06:30:53;;;;;;;4.10;1.25;;;8.10;99.90;;;;;;4903479;29;20041;-88
2022/01/30 06:33:38;;;;;;;3.72;1.25;;;8.10;99.90;;;;;;4890293;29;20040;-85
2022/01/30 06:36:24;;;;;;;3.53;1.45;;;8.00;99.90;;;;;;4891505;29;20060;-86
2022/01/30 06:39:02;;;;;;;5.32;1.13;;;8.10;99.90;;;;;;4910898;29;20029;-87
2022/01/30 06:41:38;;;;;;;9.20;1.63;;;8.10;99.90;;;;;;4895668;29;20053;-88
2022/01/30 06:44:26;;;;;;;5.90;1.40;;;8.10;99.90;;;;;;4895519;29;20597;-87
2022/01/30 06:47:11;;;;;;;3.83;1.30;;;8.10;99.90;;;;;;4892343;29;20052;-86
2022/01/30 06:50:06;;;;;;;7.63;1.67;;;8.10;99.90;;;;;;4905481;29;20048;-86
2022/01/30 06:52:52;;;;;;;5.88;2.22;;;8.00;99.90;;;;;;4894924;29;20524;-85
2022/01/30 06:55:41;;;;;;;6.85;1.35;;;8.00;99.90;;;;;;4892468;29;20128;-87
2022/01/30 06:58:28;;;;;;;3.65;1.25;;;8.00;99.90;;;;;;4894888;29;20048;-86
2022/01/30 07:01:14;;;;;;;6.45;1.20;;;8.00;99.90;;;;;;4909657;29;20093;-86
2022/01/30 07:04:17;;;;;;;5.53;1.45;;;8.10;99.90;;;;;;4881366;29;20049;-85
2022/01/30 07:07:12;;;;;;;5.43;1.58;;;8.10;99.90;;;;;;4916775;29;20465;-87
2022/01/30 07:09:37;;;;;;;7.05;1.77;;;8.10;99.90;;;;;;4960890;23;20039;-89
2022/01/30 07:12:04;;;;;;;4.25;1.30;;;8.10;99.90;;;;;;4959234;29;20034;-88
2022/01/30 07:14:30;;;;;;;5.72;1.20;;;8.10;99.90;;;;;;4960235;29;20039;-88
2022/01/30 07:16:56;;;;;;;5.25;1.33;;;8.10;99.90;;;;;;4952421;28;20007;-87
2022/01/30 07:19:22;;;;;;;3.75;1.45;;;8.10;99.90;;;;;;4954180;29;20031;-89
2022/01/30 07:21:48;;;;;;;6.22;2.08;;;8.00;99.90;;;;;;4929804;29;20040;-87
2022/01/30 07:24:15;;;;;;;3.15;1.08;;;7.90;99.90;;;;;;4933194;29;20024;-86
2022/01/30 07:26:41;;;;;;;2.58;1.20;;;7.90;99.90;;;;;;4927259;29;20079;-89
2022/01/30 07:29:07;;;;;;;4.75;2.00;;;8.00;99.90;;;;;;4929543;29;20045;-89
2022/01/30 07:31:33;;;;;;;5.97;1.40;;;8.00;99.90;;;;;;4926588;29;20037;-85
2022/01/30 07:34:02;;;;;;;6.75;1.60;;;7.90;99.90;;;;;;4923404;29;20016;-86
2022/01/30 07:36:31;;;;;;;6.03;1.38;;;7.90;99.90;;;;;;4909414;29;20041;-84
2022/01/30 07:38:57;;;;;;;5.38;1.15;;;7.90;99.90;;;;;;4942582;29;20130;-81
2022/01/30 07:41:23;;;;;;;6.95;1.50;;;8.00;99.90;;;;;;4957111;29;20098;-85
2022/01/30 07:43:49;;;;;;;3.38;1.33;;;8.10;99.90;;;;;;4933977;29;20040;-85
2022/01/30 07:46:19;;;;;;;9.95;2.80;;;8.20;99.90;;;;;;4932024;29;20024;-82
2022/01/30 07:48:46;;;;;;;6.85;2.38;;;8.20;99.90;;;;;;4939741;29;20052;-84
2022/01/30 07:51:12;;;;;;;5.25;1.55;;;8.40;99.90;;;;;;4942130;29;20170;-83
2022/01/30 07:53:38;;;;;;;5.45;2.10;;;8.40;99.90;;;;;;4941008;29;20075;-82
2022/01/30 07:56:04;;;;;;;3.70;1.25;;;8.40;99.90;;;;;;4942589;29;20032;-83
2022/01/30 07:58:30;;;;;;;8.82;1.27;;;8.40;99.90;;;;;;4937106;29;20057;-86
2022/01/30 08:00:56;;;;;;;6.85;1.25;;;8.40;99.90;;;;;;4937556;29;20028;-84
2022/01/30 08:03:22;;;;;;;3.97;1.30;;;8.40;99.90;;;;;;4936028;29;20051;-84
2022/01/30 08:05:48;;;;;;;6.85;1.33;;;8.50;99.90;;;;;;4937147;29;20039;-83
2022/01/30 08:08:14;;;;;;;8.25;1.70;;;8.50;99.80;;;;;;4935139;29;20035;-82
2022/01/30 08:10:40;;;;;;;10.10;1.70;;;8.60;99.60;;;;;;4930378;29;20028;-83
2022/01/30 08:13:06;;;;;;;7.90;1.55;;;8.60;99.50;;;;;;4931617;29;20052;-84
2022/01/30 08:15:32;;;;;;;5.60;1.60;;;8.70;99.20;;;;;;4931918;29;20036;-83
2022/01/30 08:17:57;;;;;;;5.43;1.35;;;8.80;98.90;;;;;;4931828;29;20028;-85
2022/01/30 08:20:26;;;;;;;10.02;3.15;;;8.90;98.60;;;;;;4930488;29;20056;-83
2022/01/30 08:22:53;;;;;;;9.82;3.00;;;9.00;97.90;;;;;;4932457;29;20043;-84
2022/01/30 08:25:22;;;;;;;8.43;1.88;;;9.00;97.70;;;;;;4934866;29;20039;-82
2022/01/30 08:27:50;;;;;;;5.45;1.65;;;9.00;97.50;;;;;;4936161;29;20051;-85
2022/01/30 08:30:16;;;;;;;4.88;1.60;;;8.90;97.30;;;;;;4935384;29;20040;-83
2022/01/30 08:32:44;;;;;;;6.55;1.20;;;8.90;96.80;;;;;;4934229;29;20104;-84
2022/01/30 08:35:12;;;;;;;11.05;2.67;;;8.80;96.50;;;;;;4936387;29;20156;-84
2022/01/30 08:37:38;;;;;;;7.18;2.40;;;8.80;96.20;;;;;;4936851;29;20032;-84
2022/01/30 08:40:25;;;;;;;8.10;1.80;;;8.70;96.00;;;;;;4935788;29;20036;-84
2022/01/30 08:42:51;;;;;;;10.70;3.38;;;8.70;95.50;;;;;;4950966;29;20036;-83
2022/01/30 08:45:18;;;;;;;9.60;1.77;;;8.60;95.80;;;;;;4936264;29;20023;-84
2022/01/30 08:47:46;;;;;;;7.57;1.70;;;8.70;95.50;;;;;;4939505;29;20024;-83
2022/01/30 08:50:14;;;;;;;6.25;1.60;;;8.80;94.60;;;;;;4939086;29;20050;-83
2022/01/30 08:52:41;;;;;;;9.65;2.40;;;8.90;94.30;;;;;;4937670;29;20028;-85
2022/01/30 08:55:08;;;;;;;9.07;2.25;;;8.90;93.60;;;;;;4930057;29;20028;-84
2022/01/30 08:57:34;;;;;;;9.02;1.80;;;9.00;93.40;;;;;;4925763;29;20095;-84
2022/01/30 09:00:01;;;;;;;12.40;1.88;;;9.00;92.90;;;;;;4926914;29;20032;-84
2022/01/30 09:02:26;;;;;;;7.90;2.20;;;9.00;92.30;;;;;;4924278;29;20038;-85
2022/01/30 09:04:52;;;;;;;5.07;1.30;;;9.00;92.20;;;;;;4931022;29;20056;-83
2022/01/30 09:07:20;;;;;;;6.53;1.27;;;9.50;91.10;;;;;;4931508;29;20117;-86
2022/01/30 09:09:46;;;;;;;4.72;1.58;;;10.20;89.70;;;;;;4931002;29;20063;-86
2022/01/30 09:12:13;;;;;;;5.80;1.60;;;10.90;87.40;;;;;;4928290;29;20028;-86
2022/01/30 09:14:40;;;;;;;8.65;1.50;;;11.50;84.80;;;;;;4926245;29;20039;-83
2022/01/30 09:17:14;;;;;;;6.45;1.33;;;11.80;82.90;;;;;;4924237;29;20040;-85
2022/01/30 09:19:43;;;;;;;5.50;1.40;;;12.70;80.00;;;;;;4927256;29;20039;-85
2022/01/30 09:22:10;;;;;;;10.95;1.40;;;13.30;76.60;;;;;;4924985;29;20331;-85
2022/01/30 09:24:37;;;;;;;4.53;1.45;;;13.40;75.20;;;;;;4923956;29;20162;-86
2022/01/30 09:27:04;;;;;;;9.05;1.48;;;13.00;72.20;;;;;;4921519;29;20024;-85
2022/01/30 09:29:31;;;;;;;8.75;1.60;;;11.90;72.80;;;;;;4916314;29;20039;-84
2022/01/30 09:31:58;;;;;;;15.30;4.07;;;10.80;74.90;;;;;;4925615;29;20027;-85
2022/01/30 09:34:24;;;;;;;10.38;1.88;;;10.30;76.50;;;;;;4922534;29;20042;-83
2022/01/30 09:36:50;;;;;;;7.57;1.42;;;10.60;75.80;;;;;;4926579;29;20052;-84
2022/01/30 09:39:16;;;;;;;6.38;1.98;;;10.60;76.70;;;;;;4928571;29;20028;-85
2022/01/30 09:41:46;;;;;;;8.63;1.98;;;10.20;76.90;;;;;;4925774;29;20032;-87
2022/01/30 09:44:12;;;;;;;6.38;1.40;;;10.00;76.70;;;;;;4951032;29;20052;-83
2022/01/30 09:46:42;;;;;;;8.85;2.45;;;10.70;76.80;;;;;;4928936;29;20028;-85
2022/01/30 09:49:09;;;;;;;5.63;1.52;;;11.10;76.20;;;;;;4926036;29;20032;-84
2022/01/30 09:51:40;;;;;;;7.68;1.65;;;11.20;75.20;;;;;;4925246;29;20428;-85
2022/01/30 09:54:08;;;;;;;7.72;1.50;;;11.00;75.80;;;;;;4925223;29;20036;-83
2022/01/30 09:56:34;;;;;;;4.15;1.10;;;10.80;76.20;;;;;;4905180;29;20058;-83
2022/01/30 09:59:01;;;;;;;6.13;1.75;;;10.60;76.60;;;;;;4927207;29;20028;-87
2022/01/30 10:01:33;;;;;;;10.80;2.35;;;10.70;76.80;;;;;;4928278;29;20028;-86
2022/01/30 10:03:59;;;;;;;6.38;1.70;;;10.80;75.80;;;;;;4926496;29;20036;-87
2022/01/30 10:06:31;;;;;;;5.63;1.65;;;10.50;75.20;;;;;;4931617;29;20016;-84
2022/01/30 10:08:59;;;;;;;9.35;1.67;;;10.30;75.80;;;;;;4934048;29;20036;-84
2022/01/30 10:11:47;;;;;;;5.68;1.75;;;10.20;76.10;;;;;;4931226;29;20046;-86
2022/01/30 10:14:14;;;;;;;6.40;1.40;;;10.90;75.30;;;;;;4924958;29;20065;-86
2022/01/30 10:16:49;;;;;;;5.43;1.55;;;10.70;74.50;;;;;;4924295;29;20076;-87
2022/01/30 10:19:20;;;;;;;8.52;2.75;;;10.00;75.40;;;;;;4926312;29;20080;-87
2022/01/30 10:22:08;;;;;;;8.48;2.88;;;9.90;76.20;;;;;;4929452;29;20092;-86
2022/01/30 10:24:40;;;;;;;9.20;2.45;;;9.70;76.80;;;;;;4921839;29;20060;-87
2022/01/30 10:27:27;;;;;;;8.88;1.98;;;9.60;77.70;;;;;;4932825;29;20031;-85
2022/01/30 10:30:07;;;;;;;6.25;1.52;;;9.50;77.70;;;;;;4933527;29;20040;-89
2022/01/30 10:32:34;;;;;;;13.30;2.33;;;9.50;77.80;;;;;;4937330;29;20048;-88
2022/01/30 10:35:01;;;;;;;6.55;1.63;;;9.50;77.70;;;;;;4936961;29;20032;-85
2022/01/30 10:37:28;;;;;;;7.25;1.77;;;9.60;77.30;;;;;;4927780;29;20068;-87
2022/01/30 10:40:05;;;;;;;6.15;1.65;;;9.50;77.40;;;;;;4931654;29;20035;-88
2022/01/30 10:42:48;;;;;;;8.57;1.38;;;9.40;77.50;;;;;;4923716;29;20032;-86
2022/01/30 10:45:33;;;;;;;8.98;2.13;;;9.40;77.60;;;;;;4927627;29;20040;-88
2022/01/30 10:48:17;;;;;;;9.75;1.77;;;9.40;77.30;;;;;;4924087;29;20033;-87
2022/01/30 10:50:47;;;;;;;9.23;2.15;;;9.40;76.60;;;;;;4923915;29;20416;-87
2022/01/30 10:53:23;;;;;;;13.88;2.08;;;9.50;76.00;;;;;;4920555;29;20088;-89
2022/01/30 10:55:50;;;;;;;8.07;1.95;;;9.40;76.00;;;;;;4919389;29;20087;-87
2022/01/30 10:58:22;;;;;;;3.60;1.20;;;9.30;76.50;;;;;;4920142;29;20051;-86
2022/01/30 11:00:52;;;;;;;7.00;1.67;;;9.40;76.80;;;;;;4924959;29;20045;-87
2022/01/30 11:03:44;;;;;;;5.68;1.70;;;9.60;76.70;;;;;;4922665;29;20037;-88
2022/01/30 11:06:14;;;;;;;5.40;1.27;;;9.70;75.90;;;;;;4934997;29;20055;-85
2022/01/30 11:08:44;;;;;;;11.43;1.60;;;10.20;75.00;;;;;;4925745;29;20024;-85
2022/01/30 11:11:34;;;;;;;6.70;2.10;;;10.20;74.90;;;;;;4932514;29;20032;-86
2022/01/30 11:14:16;;;;;;;8.55;3.60;;;11.20;74.00;;;;;;4932949;29;20040;-86
2022/01/30 11:17:03;;;;;;;10.32;3.25;;;11.60;71.30;;;;;;4935350;29;20062;-86
2022/01/30 11:19:35;;;;;;;8.63;3.35;;;11.60;71.40;;;;;;4923935;29;20049;-86
2022/01/30 11:22:05;;;;;;;11.85;1.67;;;12.20;69.90;;;;;;4940709;29;20028;-83
2022/01/30 11:24:36;;;;;;;5.63;1.63;;;11.80;69.40;;;;;;4959254;29;20024;-86
2022/01/30 11:27:04;;;;;;;6.90;1.45;;;11.40;70.50;;;;;;4943867;29;20033;-82
2022/01/30 11:29:34;;;;;;;8.63;1.65;;;12.40;68.30;;;;;;4943289;29;20052;-87
2022/01/30 11:32:02;;;;;;;11.23;1.73;;;13.00;65.80;;;;;;4936680;29;20047;-83
2022/01/30 11:34:38;;;;;;;5.25;1.48;;;12.60;66.00;;;;;;4941862;29;20035;-84
2022/01/30 11:37:06;;;;;;;4.95;1.50;;;11.50;67.70;;;;;;4940758;29;20032;-83
2022/01/30 11:39:33;;;;;;;7.07;1.35;;;11.10;68.70;;;;;;4943255;29;20099;-82
2022/01/30 11:42:14;;;;;;;3.60;0.98;;;11.00;69.40;;;;;;4943117;29;20012;-84
2022/01/30 11:44:43;;;;;;;6.40;1.52;;;11.20;68.70;;;;;;4942254;29;20056;-84
2022/01/30 11:47:09;;;;;;;11.35;2.20;;;11.10;68.70;;;;;;4941417;29;20042;-83
2022/01/30 11:49:50;;;;;;;5.47;2.85;;;11.50;68.20;;;;;;4941260;29;20083;-83
2022/01/30 11:52:17;;;;;;;5.65;1.73;;;11.50;68.20;;;;;;4942066;29;20044;-84
2022/01/30 11:54:53;;;;;;;6.20;1.45;;;12.00;68.00;;;;;;4942625;29;20244;-83
2022/01/30 11:57:22;;;;;;;10.73;1.70;;;12.20;68.30;;;;;;4942681;29;20053;-84
2022/01/30 11:59:50;;;;;;;4.30;1.80;;;12.60;67.50;;;;;;4940637;29;20035;-87
2022/01/30 12:02:33;;;;;;;4.93;1.65;;;12.10;67.30;;;;;;4936472;29;20040;-84
2022/01/30 12:05:06;;;;;;;8.55;2.95;;;12.00;67.10;;;;;;4932106;29;20120;-87
2022/01/30 12:07:39;;;;;;;7.90;1.52;;;11.90;67.30;;;;;;4934725;29;20072;-87
2022/01/30 12:10:26;;;;;;;4.50;1.42;;;11.80;67.20;;;;;;4936384;29;20039;-89
2022/01/30 12:12:56;;;;;;;9.75;1.85;;;11.20;68.70;;;;;;4939311;29;20028;-86
2022/01/30 12:15:43;;;;;;;5.10;1.35;;;10.70;70.40;;;;;;4937797;29;20032;-86
2022/01/30 12:18:13;;;;;;;;;;;10.40;72.00;;;;;;4929079;29;20012;-85
2022/01/30 12:20:59;;;;;;;8.02;1.60;;;10.30;72.70;;;;;;4941693;29;19903;-88
2022/01/30 12:23:29;;;;;;;3.53;1.58;;;10.10;73.00;;;;;;4941381;29;20039;-86
2022/01/30 12:26:03;;;;;;;7.50;1.30;;;9.80;74.30;;;;;;4939965;29;20050;-85
2022/01/30 12:28:51;;;;;;;8.77;1.38;;;9.80;74.00;;;;;;4939809;29;20048;-85
2022/01/30 12:31:26;;;;;;;6.97;2.15;;;9.90;74.80;;;;;;4936932;29;20034;-87
2022/01/30 12:34:01;;;;;;;;;;;9.90;73.70;;;;;;4933741;29;20059;-87
2022/01/30 12:36:30;;;;;;;6.45;1.40;;;9.90;73.90;;;;;;4933021;29;19911;-86
2022/01/30 12:39:08;;;;;;;10.07;1.92;;;9.80;74.40;;;;;;4931398;29;20028;-87
2022/01/30 12:41:36;;;;;;;7.57;1.40;;;9.90;74.50;;;;;;4930391;29;20036;-87
2022/01/30 12:44:09;;;;;;;5.85;1.60;;;9.80;74.50;;;;;;4931714;29;20065;-87
2022/01/30 12:46:46;;;;;;;9.82;1.63;;;9.60;75.20;;;;;;4931276;29;20034;-86
2022/01/30 12:49:12;;;;;;;5.63;1.88;;;9.60;75.90;;;;;;4931242;29;20059;-86
2022/01/30 12:51:39;;;;;;;9.75;1.75;;;9.30;75.70;;;;;;4926463;29;20055;-83
2022/01/30 12:54:07;;;;;;;5.93;1.80;;;9.20;76.10;;;;;;4918808;29;20037;-85
2022/01/30 12:56:32;;;;;;;5.25;1.63;;;9.20;75.00;;;;;;4937655;29;20029;-83
2022/01/30 12:59:06;;;;;;;8.20;1.33;;;9.20;75.10;;;;;;4924306;29;20059;-84
2022/01/30 13:01:36;;;;;;;8.27;1.50;;;9.10;74.20;;;;;;4916992;29;20058;-83
2022/01/30 13:04:03;;;;;;;7.47;1.38;;;9.20;74.30;;;;;;4933234;29;20474;-83
2022/01/30 13:06:33;;;;;;;6.90;1.30;;;9.10;74.50;;;;;;4917238;29;20020;-85
2022/01/30 13:08:59;;;;;;;5.60;1.33;;;9.20;73.90;;;;;;4944016;23;20042;-86
2022/01/30 13:11:25;;;;;;;5.00;1.58;;;9.30;74.50;;;;;;4939168;29;20032;-86
2022/01/30 13:13:55;;;;;;;7.70;1.48;;;9.30;74.80;;;;;;4938502;29;20024;-85
2022/01/30 13:16:25;;;;;;;5.35;1.52;;;9.30;74.90;;;;;;4938400;29;20020;-86
2022/01/30 13:18:52;;;;;;;6.53;1.90;;;9.30;74.80;;;;;;4925706;29;20036;-85
2022/01/30 13:21:26;;;;;;;5.03;1.02;;;9.20;75.20;;;;;;4941187;29;20144;-86
2022/01/30 13:23:53;;;;;;;7.40;1.73;;;9.20;75.90;;;;;;4942092;29;20080;-89
2022/01/30 13:26:36;;;;;;;8.45;1.92;;;9.20;76.00;;;;;;4937650;29;20036;-88
2022/01/30 13:29:07;;;;;;;10.60;3.08;;;9.20;75.80;;;;;;4942502;29;20047;-86
2022/01/30 13:31:37;;;;;;;8.55;1.60;;;9.10;76.40;;;;;;4943261;29;20057;-86
2022/01/30 13:34:11;;;;;;;8.98;1.77;;;9.00;77.00;;;;;;4933305;29;20349;-84
2022/01/30 13:36:41;;;;;;;12.05;1.90;;;9.00;77.20;;;;;;4937842;29;20032;-88
2022/01/30 13:39:14;;;;;;;9.15;1.73;;;9.00;77.40;;;;;;4934823;29;20040;-88
2022/01/30 13:41:49;;;;;;;7.68;1.95;;;9.00;77.80;;;;;;4938099;29;20036;-90
2022/01/30 13:44:24;;;;;;;;;;;9.00;77.60;;;;;;4935145;29;20028;-88
2022/01/30 13:47:02;;;;;;;17.20;2.55;;;8.90;77.30;;;;;;4921336;29;19964;-89
2022/01/30 13:49:30;;;;;;;9.48;1.55;;;8.80;77.50;;;;;;4917259;29;20025;-88
2022/01/30 13:52:08;;;;;;;10.40;1.38;;;8.80;78.00;;;;;;4915713;29;20028;-88
2022/01/30 13:54:34;;;;;;;5.47;1.33;;;8.70;77.60;;;;;;4899219;29;20032;-88
2022/01/30 13:57:10;;;;;;;6.75;1.67;;;8.70;78.00;;;;;;4915942;29;20025;-88
2022/01/30 13:59:37;;;;;;;6.07;1.67;;;8.70;78.30;;;;;;4938764;29;20027;-88
2022/01/30 14:02:06;;;;;;;9.85;1.63;;;8.70;78.40;;;;;;4950416;29;20019;-85
2022/01/30 14:04:34;;;;;;;5.10;1.40;;;8.80;78.60;;;;;;4951604;29;20031;-85
2022/01/30 14:07:01;;;;;;;8.60;1.50;;;8.80;78.60;;;;;;4960351;29;20015;-87
2022/01/30 14:09:42;;;;;;;6.63;1.65;;;8.80;78.80;;;;;;4954279;29;20039;-86
2022/01/30 14:12:09;;;;;;;11.27;1.60;;;8.70;78.60;;;;;;4954568;29;20032;-85
2022/01/30 14:14:39;;;;;;;6.40;1.50;;;8.70;78.60;;;;;;4946077;29;20008;-84